createdAt,value
2019-04-13T00:00:26.002Z,999.62
2019-04-13T00:01:26.029Z,999.61
2019-04-13T00:02:26.059Z,999.57
2019-04-13T00:03:26.084Z,999.60
2019-04-13T00:04:29.733Z,999.57
2019-04-13T00:05:26.135Z,999.57
2019-04-13T00:06:26.162Z,999.56
2019-04-13T00:07:26.188Z,999.60
2019-04-13T00:08:26.216Z,999.52
2019-04-13T00:09:26.245Z,999.54
2019-04-13T00:10:26.268Z,999.51
2019-04-13T00:11:26.294Z,999.51
2019-04-13T00:12:26.320Z,999.50
2019-04-13T00:13:26.349Z,999.54
2019-04-13T00:14:26.373Z,999.50
2019-04-13T00:15:30.034Z,999.52
2019-04-13T00:16:26.425Z,999.53
2019-04-13T00:17:26.452Z,999.51
2019-04-13T00:18:26.477Z,999.54
2019-04-13T00:19:26.505Z,999.53
2019-04-13T00:20:26.530Z,999.52
2019-04-13T00:21:26.558Z,999.52
2019-04-13T00:22:26.582Z,999.52
2019-04-13T00:23:26.611Z,999.44
2019-04-13T00:24:26.635Z,999.45
2019-04-13T00:25:26.661Z,999.43
2019-04-13T00:26:26.689Z,999.46
2019-04-13T00:27:26.714Z,999.46
2019-04-13T00:28:26.741Z,999.42
2019-04-13T00:29:26.774Z,999.40
2019-04-13T00:30:26.792Z,999.33
2019-04-13T00:31:26.821Z,999.41
2019-04-13T00:32:26.847Z,999.39
2019-04-13T00:33:26.872Z,999.40
2019-04-13T00:34:26.899Z,999.40
2019-04-13T00:35:26.924Z,999.32
2019-04-13T00:36:26.952Z,999.40
2019-04-13T00:37:26.976Z,999.39
2019-04-13T00:38:27.002Z,999.40
2019-04-13T00:39:27.033Z,999.41
2019-04-13T00:40:27.056Z,999.39
2019-04-13T00:41:27.081Z,999.31
2019-04-13T00:42:27.109Z,999.38
2019-04-13T00:43:27.142Z,999.37
2019-04-13T00:44:27.159Z,999.36
2019-04-13T00:45:27.185Z,999.38
2019-04-13T00:46:27.211Z,999.35
2019-04-13T00:47:27.239Z,999.34
2019-04-13T00:48:27.264Z,999.36
2019-04-13T00:49:27.342Z,999.38
2019-04-13T00:50:27.317Z,999.36
2019-04-13T00:51:27.343Z,999.35
2019-04-13T00:52:27.373Z,999.37
2019-04-13T00:53:27.397Z,999.36
2019-04-13T00:54:27.423Z,999.32
2019-04-13T00:55:27.486Z,999.35
2019-04-13T00:56:27.475Z,999.38
2019-04-13T00:57:27.501Z,999.36
2019-04-13T00:58:28.499Z,999.42
2019-04-13T00:59:27.554Z,999.36
2019-04-13T01:00:27.579Z,999.39
2019-04-13T01:01:27.607Z,999.39
2019-04-13T01:02:27.633Z,999.40
2019-04-13T01:03:27.659Z,999.38
2019-04-13T01:04:27.683Z,999.39
2019-04-13T01:05:27.711Z,999.40
2019-04-13T01:06:27.738Z,999.36
2019-04-13T01:07:27.763Z,999.37
2019-04-13T01:08:27.789Z,999.35
2019-04-13T01:09:27.815Z,999.33
2019-04-13T01:10:27.843Z,999.34
2019-04-13T01:11:27.868Z,999.33
2019-04-13T01:12:27.894Z,999.31
2019-04-13T01:13:27.922Z,999.26
2019-04-13T01:14:27.949Z,999.29
2019-04-13T01:15:27.974Z,999.28
2019-04-13T01:16:27.999Z,999.26
2019-04-13T01:17:28.030Z,999.29
2019-04-13T01:18:28.052Z,999.26
2019-04-13T01:19:28.079Z,999.32
2019-04-13T01:20:28.104Z,999.32
2019-04-13T01:21:28.131Z,999.25
2019-04-13T01:22:28.158Z,999.27
2019-04-13T01:23:28.184Z,999.33
2019-04-13T01:24:28.208Z,999.34
2019-04-13T01:25:28.235Z,999.32
2019-04-13T01:26:28.261Z,999.27
2019-04-13T01:27:28.286Z,999.32
2019-04-13T01:28:28.315Z,999.29
2019-04-13T01:29:28.339Z,999.33
2019-04-13T01:30:28.367Z,999.30
2019-04-13T01:31:28.393Z,999.29
2019-04-13T01:32:28.417Z,999.28
2019-04-13T01:33:28.443Z,999.29
2019-04-13T01:34:28.471Z,999.31
2019-04-13T01:35:28.496Z,999.30
2019-04-13T01:36:28.523Z,999.27
2019-04-13T01:37:28.548Z,999.27
2019-04-13T01:38:28.580Z,999.31
2019-04-13T01:39:28.601Z,999.27
2019-04-13T01:40:28.625Z,999.31
2019-04-13T01:41:28.652Z,999.31
2019-04-13T01:42:28.677Z,999.27
2019-04-13T01:43:28.704Z,999.27
2019-04-13T01:44:28.729Z,999.27
2019-04-13T01:45:28.757Z,999.24
2019-04-13T01:46:28.783Z,999.25
2019-04-13T01:47:28.809Z,999.26
2019-04-13T01:48:28.835Z,999.25
2019-04-13T01:49:28.862Z,999.26
2019-04-13T01:50:28.889Z,999.23
2019-04-13T01:51:28.914Z,999.23
2019-04-13T01:52:28.944Z,999.26
2019-04-13T01:53:28.966Z,999.25
2019-04-13T01:54:28.993Z,999.23
2019-04-13T01:55:29.018Z,999.21
2019-04-13T01:56:29.045Z,999.18
2019-04-13T01:57:29.072Z,999.19
2019-04-13T01:58:29.095Z,999.16
2019-04-13T01:59:29.122Z,999.19
2019-04-13T02:00:29.148Z,999.19
2019-04-13T02:01:29.173Z,999.13
2019-04-13T02:02:29.200Z,999.09
2019-04-13T02:03:29.227Z,999.11
2019-04-13T02:04:29.253Z,999.13
2019-04-13T02:05:29.279Z,999.14
2019-04-13T02:06:29.305Z,999.17
2019-04-13T02:07:29.331Z,999.17
2019-04-13T02:08:29.358Z,999.16
2019-04-13T02:09:29.383Z,999.16
2019-04-13T02:10:29.408Z,999.13
2019-04-13T02:11:29.436Z,999.11
2019-04-13T02:12:29.461Z,999.12
2019-04-13T02:13:29.487Z,999.12
2019-04-13T02:14:29.514Z,999.13
2019-04-13T02:15:29.545Z,999.10
2019-04-13T02:16:29.566Z,999.13
2019-04-13T02:17:29.599Z,999.05
2019-04-13T02:18:29.620Z,999.02
2019-04-13T02:19:29.645Z,999.14
2019-04-13T02:20:29.675Z,999.09
2019-04-13T02:21:29.695Z,999.07
2019-04-13T02:22:29.724Z,999.04
2019-04-13T02:23:29.748Z,999.05
2019-04-13T02:24:29.775Z,999.04
2019-04-13T02:25:29.800Z,999.07
2019-04-13T02:26:29.826Z,999.03
2019-04-13T02:27:29.853Z,999.06
2019-04-13T02:28:29.879Z,999.07
2019-04-13T02:29:29.905Z,998.99
2019-04-13T02:30:29.933Z,999.00
2019-04-13T02:31:29.962Z,999.02
2019-04-13T02:32:29.984Z,999.03
2019-04-13T02:33:30.012Z,998.96
2019-04-13T02:34:30.037Z,999.05
2019-04-13T02:35:35.693Z,999.04
2019-04-13T02:36:30.087Z,999.05
2019-04-13T02:37:30.133Z,998.97
2019-04-13T02:38:30.142Z,998.97
2019-04-13T02:39:30.168Z,998.93
2019-04-13T02:40:30.193Z,998.96
2019-04-13T02:41:30.220Z,999.01
2019-04-13T02:42:30.247Z,998.95
2019-04-13T02:43:30.272Z,998.97
2019-04-13T02:44:30.297Z,998.94
2019-04-13T02:45:30.325Z,998.97
2019-04-13T02:46:30.364Z,998.95
2019-04-13T02:47:30.379Z,998.92
2019-04-13T02:48:30.419Z,999.00
2019-04-13T02:49:30.431Z,998.97
2019-04-13T02:50:30.459Z,998.96
2019-04-13T02:51:30.545Z,998.94
2019-04-13T02:52:30.508Z,998.90
2019-04-13T02:53:30.534Z,998.94
2019-04-13T02:54:30.561Z,998.93
2019-04-13T02:55:30.588Z,998.91
2019-04-13T02:56:30.614Z,998.92
2019-04-13T02:57:30.640Z,998.85
2019-04-13T02:58:30.664Z,998.87
2019-04-13T02:59:30.693Z,998.88
2019-04-13T03:00:30.719Z,998.85
2019-04-13T03:01:30.744Z,998.88
2019-04-13T03:02:30.770Z,998.85
2019-04-13T03:03:30.798Z,998.87
2019-04-13T03:04:30.822Z,998.86
2019-04-13T03:05:30.849Z,998.82
2019-04-13T03:06:30.877Z,998.82
2019-04-13T03:07:30.903Z,998.82
2019-04-13T03:08:30.928Z,998.82
2019-04-13T03:09:30.958Z,998.76
2019-04-13T03:10:30.981Z,998.77
2019-04-13T03:11:31.008Z,998.74
2019-04-13T03:12:31.034Z,998.76
2019-04-13T03:13:31.060Z,998.82
2019-04-13T03:14:31.087Z,998.82
2019-04-13T03:15:31.114Z,998.81
2019-04-13T03:16:31.139Z,998.80
2019-04-13T03:17:31.165Z,998.80
2019-04-13T03:18:31.192Z,998.79
2019-04-13T03:19:31.219Z,998.84
2019-04-13T03:20:31.249Z,998.81
2019-04-13T03:21:31.278Z,998.78
2019-04-13T03:22:31.298Z,998.74
2019-04-13T03:23:31.325Z,998.81
2019-04-13T03:24:31.350Z,998.75
2019-04-13T03:25:31.380Z,998.78
2019-04-13T03:26:31.403Z,998.77
2019-04-13T03:27:31.431Z,998.83
2019-04-13T03:28:31.456Z,998.80
2019-04-13T03:29:31.482Z,998.77
2019-04-13T03:30:31.511Z,998.77
2019-04-13T03:31:31.536Z,998.76
2019-04-13T03:32:31.570Z,998.76
2019-04-13T03:33:31.588Z,998.74
2019-04-13T03:34:31.615Z,998.74
2019-04-13T03:35:31.642Z,998.77
2019-04-13T03:36:31.668Z,998.73
2019-04-13T03:37:31.694Z,998.72
2019-04-13T03:38:31.721Z,998.77
2019-04-13T03:39:31.747Z,998.72
2019-04-13T03:40:31.773Z,998.71
2019-04-13T03:41:31.799Z,998.77
2019-04-13T03:42:31.826Z,998.70
2019-04-13T03:43:31.852Z,998.76
2019-04-13T03:44:31.878Z,998.71
2019-04-13T03:45:31.903Z,998.72
2019-04-13T03:46:31.931Z,998.72
2019-04-13T03:47:31.958Z,998.73
2019-04-13T03:48:31.984Z,998.73
2019-04-13T03:49:32.010Z,998.69
2019-04-13T03:50:32.037Z,998.75
2019-04-13T03:51:32.063Z,998.73
2019-04-13T03:52:32.088Z,998.70
2019-04-13T03:53:32.117Z,998.76
2019-04-13T03:54:32.142Z,998.74
2019-04-13T03:55:32.169Z,998.74
2019-04-13T03:56:32.194Z,998.73
2019-04-13T03:57:32.222Z,998.76
2019-04-13T03:58:32.248Z,998.75
2019-04-13T03:59:32.275Z,998.74
2019-04-13T04:00:32.301Z,998.76
2019-04-13T04:01:32.376Z,998.74
2019-04-13T04:02:32.356Z,998.69
2019-04-13T04:03:32.380Z,998.74
2019-04-13T04:04:32.405Z,998.70
2019-04-13T04:05:32.438Z,998.71
2019-04-13T04:06:32.461Z,998.74
2019-04-13T04:07:32.483Z,998.77
2019-04-13T04:08:32.514Z,998.79
2019-04-13T04:09:32.536Z,998.77
2019-04-13T04:10:32.563Z,998.75
2019-04-13T04:11:32.590Z,998.73
2019-04-13T04:12:32.615Z,998.68
2019-04-13T04:13:32.642Z,998.70
2019-04-13T04:14:32.669Z,998.68
2019-04-13T04:15:32.696Z,998.69
2019-04-13T04:16:32.722Z,998.72
2019-04-13T04:17:32.748Z,998.72
2019-04-13T04:18:32.775Z,998.70
2019-04-13T04:19:32.800Z,998.72
2019-04-13T04:20:32.828Z,998.74
2019-04-13T04:21:32.855Z,998.69
2019-04-13T04:22:32.881Z,998.77
2019-04-13T04:23:32.907Z,998.72
2019-04-13T04:24:32.933Z,998.74
2019-04-13T04:25:32.960Z,998.70
2019-04-13T04:26:32.987Z,998.71
2019-04-13T04:27:33.013Z,998.66
2019-04-13T04:28:33.039Z,998.73
2019-04-13T04:29:33.069Z,998.70
2019-04-13T04:30:33.094Z,998.75
2019-04-13T04:31:33.119Z,998.68
2019-04-13T04:32:33.143Z,998.69
2019-04-13T04:33:33.172Z,998.70
2019-04-13T04:34:33.202Z,998.74
2019-04-13T04:35:33.224Z,998.74
2019-04-13T04:36:33.250Z,998.76
2019-04-13T04:37:33.278Z,998.78
2019-04-13T04:38:33.304Z,998.75
2019-04-13T04:39:33.329Z,998.79
2019-04-13T04:40:35.338Z,998.79
2019-04-13T04:41:33.382Z,998.79
2019-04-13T04:42:33.410Z,998.77
2019-04-13T04:43:33.441Z,998.83
2019-04-13T04:44:33.463Z,998.81
2019-04-13T04:45:33.489Z,998.79
2019-04-13T04:46:33.516Z,998.76
2019-04-13T04:47:33.544Z,998.77
2019-04-13T04:48:33.568Z,998.77
2019-04-13T04:49:33.596Z,998.80
2019-04-13T04:50:33.622Z,998.82
2019-04-13T04:51:33.649Z,998.81
2019-04-13T04:52:33.685Z,998.80
2019-04-13T04:53:33.702Z,998.81
2019-04-13T04:54:33.728Z,998.76
2019-04-13T04:55:33.764Z,998.79
2019-04-13T04:56:33.798Z,998.75
2019-04-13T04:57:33.808Z,998.74
2019-04-13T04:58:33.834Z,998.80
2019-04-13T04:59:33.877Z,998.75
2019-04-13T05:00:33.888Z,998.82
2019-04-13T05:01:33.912Z,998.85
2019-04-13T05:02:33.939Z,998.85
2019-04-13T05:03:33.966Z,998.89
2019-04-13T05:04:33.991Z,998.90
2019-04-13T05:05:34.017Z,998.88
2019-04-13T05:06:35.723Z,998.89
2019-04-13T05:07:34.073Z,998.93
2019-04-13T05:08:34.097Z,998.88
2019-04-13T05:09:34.129Z,998.92
2019-04-13T05:10:34.154Z,998.90
2019-04-13T05:11:34.177Z,998.93
2019-04-13T05:12:34.203Z,998.93
2019-04-13T05:13:34.230Z,998.93
2019-04-13T05:14:34.257Z,998.97
2019-04-13T05:15:34.284Z,998.93
2019-04-13T05:16:34.309Z,998.91
2019-04-13T05:17:34.337Z,998.96
2019-04-13T05:18:34.362Z,998.92
2019-04-13T05:19:34.390Z,998.96
2019-04-13T05:20:34.416Z,998.94
2019-04-13T05:21:34.443Z,998.95
2019-04-13T05:22:34.469Z,998.94
2019-04-13T05:23:34.496Z,998.94
2019-04-13T05:24:34.522Z,998.95
2019-04-13T05:25:34.549Z,998.95
2019-04-13T05:26:34.576Z,998.97
2019-04-13T05:27:34.602Z,998.95
2019-04-13T05:28:34.627Z,998.96
2019-04-13T05:29:34.654Z,998.98
2019-04-13T05:30:34.681Z,998.96
2019-04-13T05:31:34.707Z,998.98
2019-04-13T05:32:34.747Z,999.01
2019-04-13T05:33:34.760Z,999.03
2019-04-13T05:34:34.790Z,999.02
2019-04-13T05:35:34.813Z,999.03
2019-04-13T05:36:34.839Z,999.00
2019-04-13T05:37:34.866Z,999.03
2019-04-13T05:38:34.893Z,999.06
2019-04-13T05:39:34.922Z,999.07
2019-04-13T05:40:34.946Z,999.10
2019-04-13T05:41:34.973Z,999.12
2019-04-13T05:42:35.002Z,999.08
2019-04-13T05:43:35.030Z,999.09
2019-04-13T05:44:35.052Z,999.08
2019-04-13T05:45:36.614Z,999.13
2019-04-13T05:46:35.109Z,999.15
2019-04-13T05:47:35.134Z,999.13
2019-04-13T05:48:35.160Z,999.13
2019-04-13T05:49:35.186Z,999.09
2019-04-13T05:50:35.213Z,999.12
2019-04-13T05:51:35.242Z,999.21
2019-04-13T05:52:35.266Z,999.15
2019-04-13T05:53:35.294Z,999.16
2019-04-13T05:54:35.324Z,999.15
2019-04-13T05:55:35.347Z,999.16
2019-04-13T05:56:35.375Z,999.15
2019-04-13T05:57:35.402Z,999.15
2019-04-13T05:58:35.429Z,999.14
2019-04-13T05:59:35.455Z,999.19
2019-04-13T06:00:35.483Z,999.22
2019-04-13T06:01:35.515Z,999.18
2019-04-13T06:02:36.016Z,999.18
2019-04-13T06:03:35.563Z,999.17
2019-04-13T06:04:35.590Z,999.20
2019-04-13T06:05:35.673Z,999.19
2019-04-13T06:06:35.650Z,999.21
2019-04-13T06:07:35.671Z,999.22
2019-04-13T06:08:36.153Z,999.23
2019-04-13T06:09:35.727Z,999.24
2019-04-13T06:10:35.753Z,999.26
2019-04-13T06:11:36.028Z,999.25
2019-04-13T06:12:35.814Z,999.29
2019-04-13T06:13:35.834Z,999.24
2019-04-13T06:14:35.860Z,999.23
2019-04-13T06:15:35.887Z,999.25
2019-04-13T06:16:37.520Z,999.29
2019-04-13T06:17:35.942Z,999.28
2019-04-13T06:18:35.969Z,999.33
2019-04-13T06:19:36.649Z,999.30
2019-04-13T06:20:36.023Z,999.35
2019-04-13T06:21:37.427Z,999.40
2019-04-13T06:22:36.077Z,999.39
2019-04-13T06:23:36.104Z,999.38
2019-04-13T06:24:36.132Z,999.42
2019-04-13T06:25:36.160Z,999.44
2019-04-13T06:26:36.187Z,999.38
2019-04-13T06:27:36.218Z,999.43
2019-04-13T06:28:36.242Z,999.45
2019-04-13T06:29:36.269Z,999.41
2019-04-13T06:30:36.297Z,999.44
2019-04-13T06:31:36.324Z,999.46
2019-04-13T06:32:36.349Z,999.40
2019-04-13T06:33:36.377Z,999.44
2019-04-13T06:34:36.404Z,999.48
2019-04-13T06:35:36.432Z,999.49
2019-04-13T06:36:36.460Z,999.49
2019-04-13T06:37:36.487Z,999.49
2019-04-13T06:38:36.515Z,999.49
2019-04-13T06:39:36.543Z,999.55
2019-04-13T06:40:38.419Z,999.48
2019-04-13T06:41:36.597Z,999.56
2019-04-13T06:42:36.627Z,999.51
2019-04-13T06:43:36.652Z,999.50
2019-04-13T06:44:36.680Z,999.49
2019-04-13T06:45:36.710Z,999.48
2019-04-13T06:46:36.735Z,999.54
2019-04-13T06:47:36.762Z,999.51
2019-04-13T06:48:37.434Z,999.51
2019-04-13T06:49:36.823Z,999.52
2019-04-13T06:50:36.845Z,999.57
2019-04-13T06:51:36.873Z,999.52
2019-04-13T06:52:36.908Z,999.60
2019-04-13T06:53:38.578Z,999.55
2019-04-13T06:54:36.957Z,999.59
2019-04-13T06:55:36.985Z,999.52
2019-04-13T06:56:37.012Z,999.52
2019-04-13T06:57:37.040Z,999.57
2019-04-13T06:58:37.069Z,999.52
2019-04-13T06:59:39.310Z,999.51
2019-04-13T07:00:37.123Z,999.51
2019-04-13T07:01:37.153Z,999.52
2019-04-13T07:02:37.180Z,999.53
2019-04-13T07:03:37.208Z,999.49
2019-04-13T07:04:40.359Z,999.55
2019-04-13T07:05:37.263Z,999.52
2019-04-13T07:06:47.202Z,999.55
2019-04-13T07:07:45.492Z,999.52
2019-04-13T07:08:38.509Z,999.51
2019-04-13T07:09:40.539Z,999.51
2019-04-13T07:10:44.551Z,999.50
2019-04-13T07:11:37.463Z,999.47
2019-04-13T07:12:37.459Z,999.48
2019-04-13T07:13:37.489Z,999.51
2019-04-13T07:14:37.531Z,999.53
2019-04-13T07:15:46.099Z,999.53
2019-04-13T07:16:37.573Z,999.60
2019-04-13T07:17:37.604Z,999.62
2019-04-13T07:18:37.630Z,999.58
2019-04-13T07:19:41.504Z,999.62
2019-04-13T07:20:37.684Z,999.68
2019-04-13T07:21:38.128Z,999.70
2019-04-13T07:22:38.689Z,999.66
2019-04-13T07:23:37.769Z,999.69
2019-04-13T07:24:37.799Z,999.74
2019-04-13T07:25:37.825Z,999.74
2019-04-13T07:26:40.226Z,999.76
2019-04-13T07:27:37.883Z,999.72
2019-04-13T07:28:37.909Z,999.76
2019-04-13T07:29:37.939Z,999.77
2019-04-13T07:30:37.967Z,999.75
2019-04-13T07:31:37.996Z,999.70
2019-04-13T07:32:38.024Z,999.73
2019-04-13T07:33:38.053Z,999.76
2019-04-13T07:34:38.085Z,999.75
2019-04-13T07:35:40.494Z,999.70
2019-04-13T07:36:41.421Z,999.70
2019-04-13T07:37:38.165Z,999.66
2019-04-13T07:38:38.193Z,999.71
2019-04-13T07:39:38.222Z,999.74
2019-04-13T07:40:40.855Z,999.72
2019-04-13T07:41:38.280Z,999.74
2019-04-13T07:42:39.738Z,999.72
2019-04-13T07:43:38.337Z,999.71
2019-04-13T07:44:38.365Z,999.70
2019-04-13T07:45:38.397Z,999.76
2019-04-13T07:46:38.422Z,999.71
2019-04-13T07:47:38.451Z,999.70
2019-04-13T07:48:38.479Z,999.68
2019-04-13T07:49:38.507Z,999.66
2019-04-13T07:50:38.538Z,999.70
2019-04-13T07:51:38.565Z,999.71
2019-04-13T07:52:38.594Z,999.67
2019-04-13T07:53:38.622Z,999.72
2019-04-13T07:54:38.652Z,999.68
2019-04-13T07:55:38.680Z,999.72
2019-04-13T07:56:38.708Z,999.75
2019-04-13T07:57:38.735Z,999.74
2019-04-13T07:58:38.764Z,999.72
2019-04-13T07:59:38.795Z,999.75
2019-04-13T08:00:38.820Z,999.78
2019-04-13T08:01:38.849Z,999.74
2019-04-13T08:02:38.878Z,999.78
2019-04-13T08:03:38.906Z,999.78
2019-04-13T08:04:38.935Z,999.84
2019-04-13T08:05:38.964Z,999.89
2019-04-13T08:06:38.993Z,999.91
2019-04-13T08:07:49.124Z,999.93
2019-04-13T08:08:40.368Z,999.95
2019-04-13T08:09:39.079Z,999.93
2019-04-13T08:10:39.108Z,999.91
2019-04-13T08:11:39.142Z,999.87
2019-04-13T08:12:39.166Z,999.88
2019-04-13T08:13:39.194Z,999.89
2019-04-13T08:14:39.225Z,999.95
2019-04-13T08:15:39.257Z,999.88
2019-04-13T08:16:39.508Z,999.88
2019-04-13T08:17:39.362Z,999.86
2019-04-13T08:18:42.002Z,999.84
2019-04-13T08:19:39.372Z,999.85
2019-04-13T08:20:39.424Z,999.92
2019-04-13T08:21:39.438Z,999.88
2019-04-13T08:22:39.459Z,999.78
2019-04-13T08:23:39.489Z,999.84
2019-04-13T08:24:40.125Z,999.77
2019-04-13T08:25:39.548Z,999.90
2019-04-13T08:26:39.578Z,999.89
2019-04-13T08:27:39.612Z,999.89
2019-04-13T08:28:39.641Z,999.88
2019-04-13T08:29:39.693Z,999.85
2019-04-13T08:30:39.699Z,999.89
2019-04-13T08:31:39.779Z,999.90
2019-04-13T08:32:39.758Z,999.87
2019-04-13T08:33:39.816Z,999.90
2019-04-13T08:34:42.443Z,999.85
2019-04-13T08:35:42.343Z,999.87
2019-04-13T08:36:39.894Z,999.92
2019-04-13T08:37:52.559Z,999.92
2019-04-13T08:38:39.944Z,999.95
2019-04-13T08:39:39.975Z,999.95
2019-04-13T08:40:40.006Z,999.95
2019-04-13T08:41:40.035Z,999.95
2019-04-13T08:42:40.674Z,999.92
2019-04-13T08:43:40.137Z,999.97
2019-04-13T08:44:40.130Z,1000.00
2019-04-13T08:45:43.798Z,999.93
2019-04-13T08:46:40.191Z,999.90
2019-04-13T08:47:40.223Z,999.94
2019-04-13T08:48:40.257Z,999.97
2019-04-13T08:49:40.285Z,1000.01
2019-04-13T08:50:40.316Z,999.95
2019-04-13T08:51:40.349Z,999.92
2019-04-13T08:52:40.380Z,999.92
2019-04-13T08:53:40.414Z,999.86
2019-04-13T08:54:40.443Z,999.92
2019-04-13T08:55:40.477Z,999.84
2019-04-13T08:56:40.507Z,999.82
2019-04-13T08:57:40.538Z,999.76
2019-04-13T08:58:41.186Z,999.74
2019-04-13T08:59:40.605Z,999.73
2019-04-13T09:00:40.686Z,999.72
2019-04-13T09:01:40.666Z,999.76
2019-04-13T09:02:40.699Z,999.78
2019-04-13T09:03:40.734Z,999.76
2019-04-13T09:04:40.761Z,999.80
2019-04-13T09:05:40.794Z,999.84
2019-04-13T09:06:40.835Z,999.83
2019-04-13T09:07:40.857Z,999.81
2019-04-13T09:08:40.891Z,999.90
2019-04-13T09:09:41.518Z,999.90
2019-04-13T09:13:47.588Z,999.88
2019-04-13T09:14:46.962Z,999.81
2019-04-13T09:15:48.763Z,999.80
2019-04-13T09:16:47.363Z,999.82
2019-04-13T09:17:52.556Z,999.82
2019-04-13T09:18:48.344Z,999.83
2019-04-13T09:19:47.117Z,999.85
2019-04-13T09:20:47.789Z,999.82
2019-04-13T09:21:51.613Z,999.82
2019-04-13T09:22:47.989Z,999.79
2019-04-13T09:23:48.702Z,999.74
2019-04-13T09:24:48.727Z,999.75
2019-04-13T09:25:47.308Z,999.76
2019-04-13T09:26:47.340Z,999.76
2019-04-13T09:27:47.372Z,999.78
2019-04-13T09:28:47.403Z,999.75
2019-04-13T09:29:47.814Z,999.76
2019-04-13T09:30:47.465Z,999.75
2019-04-13T09:31:49.903Z,999.70
2019-04-13T09:32:47.529Z,999.70
2019-04-13T09:33:47.559Z,999.79
2019-04-13T09:34:47.590Z,999.74
2019-04-13T09:35:47.621Z,999.73
2019-04-13T09:36:47.653Z,999.73
2019-04-13T09:37:47.779Z,999.64
2019-04-13T09:38:47.715Z,999.60
2019-04-13T09:39:47.745Z,999.66
2019-04-13T09:40:47.779Z,999.69
2019-04-13T09:41:47.809Z,999.67
2019-04-13T09:42:47.840Z,999.66
2019-04-13T09:43:47.872Z,999.66
2019-04-13T09:44:47.904Z,999.61
2019-04-13T09:45:47.934Z,999.56
2019-04-13T09:46:47.965Z,999.57
2019-04-13T09:47:47.994Z,999.61
2019-04-13T09:48:48.820Z,999.59
2019-04-13T09:49:49.630Z,999.58
2019-04-13T09:50:48.090Z,999.57
2019-04-13T09:51:48.121Z,999.57
2019-04-13T09:52:48.151Z,999.60
2019-04-13T09:53:48.787Z,999.55
2019-04-13T09:54:48.215Z,999.56
2019-04-13T09:55:49.865Z,999.60
2019-04-13T09:56:48.275Z,999.58
2019-04-13T09:57:48.307Z,999.64
2019-04-13T09:58:48.338Z,999.61
2019-04-13T09:59:48.368Z,999.71
2019-04-13T10:00:48.411Z,999.72
2019-04-13T10:01:48.437Z,999.77
2019-04-13T10:02:48.464Z,999.79
2019-04-13T10:03:48.493Z,999.69
2019-04-13T10:04:49.415Z,999.67
2019-04-13T10:05:48.628Z,999.67
2019-04-13T10:06:48.590Z,999.59
2019-04-13T10:07:48.621Z,999.57
2019-04-13T10:08:55.761Z,999.64
2019-04-13T10:09:48.686Z,999.56
2019-04-13T10:10:48.717Z,999.52
2019-04-13T10:11:50.279Z,999.59
2019-04-13T10:12:48.792Z,999.57
2019-04-13T10:13:49.239Z,999.59
2019-04-13T10:14:48.848Z,999.52
2019-04-13T10:15:49.342Z,999.52
2019-04-13T10:16:50.479Z,999.55
2019-04-13T10:17:48.944Z,999.50
2019-04-13T10:18:48.977Z,999.49
2019-04-13T10:19:49.009Z,999.51
2019-04-13T10:20:49.042Z,999.50
2019-04-13T10:21:49.987Z,999.49
2019-04-13T10:22:49.107Z,999.49
2019-04-13T10:23:49.138Z,999.50
2019-04-13T10:24:49.172Z,999.44
2019-04-13T10:25:49.204Z,999.43
2019-04-13T10:26:49.237Z,999.44
2019-04-13T10:27:49.269Z,999.40
2019-04-13T10:28:49.301Z,999.39
2019-04-13T10:29:49.854Z,999.45
2019-04-13T10:30:53.387Z,999.45
2019-04-13T10:31:49.395Z,999.46
2019-04-13T10:32:49.427Z,999.53
2019-04-13T10:33:49.459Z,999.44
2019-04-13T10:34:49.495Z,999.45
2019-04-13T10:35:49.578Z,999.45
2019-04-13T10:36:49.555Z,999.46
2019-04-13T10:37:49.588Z,999.51
2019-04-13T10:38:49.619Z,999.50
2019-04-13T10:39:49.649Z,999.58
2019-04-13T10:40:49.679Z,999.61
2019-04-13T10:41:49.711Z,999.64
2019-04-13T10:42:49.765Z,999.81
2019-04-13T10:43:49.778Z,999.76
2019-04-13T10:44:49.808Z,999.69
2019-04-13T10:45:49.837Z,999.74
2019-04-13T10:46:54.095Z,999.75
2019-04-13T10:47:49.903Z,999.88
2019-04-13T10:48:49.933Z,999.69
2019-04-13T10:49:49.967Z,999.77
2019-04-13T10:51:50.032Z,999.67
2019-04-13T10:52:54.322Z,999.66
2019-04-13T10:53:50.099Z,999.76
2019-04-13T10:54:50.131Z,999.90
2019-04-13T10:55:50.165Z,999.93
2019-04-13T10:56:50.201Z,999.76
2019-04-13T10:57:50.231Z,999.59
2019-04-13T10:58:50.272Z,999.47
2019-04-13T10:59:50.918Z,999.52
2019-04-13T11:00:50.341Z,999.43
2019-04-13T11:01:50.367Z,999.46
2019-04-13T11:02:50.401Z,999.50
2019-04-13T11:03:50.435Z,999.56
2019-04-13T11:04:50.471Z,999.58
2019-04-13T11:05:50.511Z,999.61
2019-04-13T11:06:52.836Z,999.53
2019-04-13T11:07:50.572Z,999.51
2019-04-13T11:08:51.492Z,999.50
2019-04-13T11:09:50.698Z,999.44
2019-04-13T11:10:50.674Z,999.39
2019-04-13T11:11:50.707Z,999.38
2019-04-13T11:12:50.945Z,999.33
2019-04-13T11:13:50.776Z,999.37
2019-04-13T11:14:50.813Z,999.38
2019-04-13T11:15:50.842Z,999.41
2019-04-13T11:16:52.655Z,999.37
2019-04-13T11:17:50.916Z,999.41
2019-04-13T11:18:50.941Z,999.42
2019-04-13T11:19:50.973Z,999.43
2019-04-13T11:20:51.006Z,999.42
2019-04-13T11:21:51.040Z,999.41
2019-04-13T11:22:53.812Z,999.42
2019-04-13T11:23:51.104Z,999.46
2019-04-13T11:24:51.137Z,999.44
2019-04-13T11:25:51.170Z,999.43
2019-04-13T11:26:51.681Z,999.39
2019-04-13T11:27:51.235Z,999.45
2019-04-13T11:28:51.267Z,999.44
2019-04-13T11:29:54.926Z,999.44
2019-04-13T11:30:51.334Z,999.51
2019-04-13T11:31:54.772Z,999.55
2019-04-13T11:32:51.397Z,999.58
2019-04-13T11:33:51.430Z,999.62
2019-04-13T11:34:54.017Z,999.55
2019-04-13T11:35:51.494Z,999.50
2019-04-13T11:36:51.526Z,999.56
2019-04-13T11:37:51.559Z,999.54
2019-04-13T11:38:51.592Z,999.52
2019-04-13T11:39:51.622Z,999.51
2019-04-13T11:40:51.655Z,999.49
2019-04-13T11:41:51.687Z,999.49
2019-04-13T11:42:51.720Z,999.56
2019-04-13T11:43:51.751Z,999.46
2019-04-13T11:44:51.785Z,999.46
2019-04-13T11:45:51.817Z,999.44
2019-04-13T11:46:51.849Z,999.44
2019-04-13T11:47:51.879Z,999.40
2019-04-13T11:48:51.914Z,999.47
2019-04-13T11:49:56.774Z,999.47
2019-04-13T11:50:51.978Z,999.38
2019-04-13T11:51:52.014Z,999.39
2019-04-13T11:52:52.040Z,999.29
2019-04-13T11:53:54.139Z,999.30
2019-04-13T11:54:52.105Z,999.27
2019-04-13T11:55:52.136Z,999.30
2019-04-13T11:56:52.170Z,999.28
2019-04-13T11:57:52.203Z,999.33
2019-04-13T11:58:52.235Z,999.34
2019-04-13T11:59:52.263Z,999.32
2019-04-13T12:00:52.299Z,999.29
2019-04-13T12:01:52.328Z,999.27
2019-04-13T12:02:52.360Z,999.29
2019-04-13T12:03:52.391Z,999.30
2019-04-13T12:04:52.424Z,999.30
2019-04-13T12:05:52.454Z,999.36
2019-04-13T12:06:52.486Z,999.27
2019-04-13T12:07:52.518Z,999.26
2019-04-13T12:08:52.549Z,999.19
2019-04-13T12:09:52.581Z,999.20
2019-04-13T12:10:52.610Z,999.27
2019-04-13T12:11:55.128Z,999.39
2019-04-13T12:12:52.673Z,999.46
2019-04-13T12:13:52.702Z,999.47
2019-04-13T12:14:52.738Z,999.45
2019-04-13T12:15:52.764Z,999.43
2019-04-13T12:16:52.795Z,999.41
2019-04-13T12:17:52.826Z,999.44
2019-04-13T12:18:52.857Z,999.40
2019-04-13T12:19:52.887Z,999.46
2019-04-13T12:20:52.918Z,999.44
2019-04-13T12:21:52.951Z,999.47
2019-04-13T12:22:52.985Z,999.49
2019-04-13T12:23:53.013Z,999.64
2019-04-13T12:24:53.042Z,999.54
2019-04-13T12:25:53.076Z,999.59
2019-04-13T12:26:53.106Z,999.62
2019-04-13T12:27:53.135Z,999.54
2019-04-13T12:28:53.166Z,999.52
2019-04-13T12:29:54.972Z,999.50
2019-04-13T12:30:53.241Z,999.56
2019-04-13T12:31:53.261Z,999.47
2019-04-13T12:32:53.299Z,999.54